Time;durP1;ratioP1;P1;durP2;ratioP2;P2;SDS_P1;SDS_P2;PMS_P1;PMS_P2;Temp;Humidity;BMP_temperature;BMP_pressure;BME280_temperature;BME280_humidity;BME280_pressure;Samples;Min_cycle;Max_cycle;Signal;HPM_P1;HPM_P2
2021/12/29 07:44:28;;;;;;;71.97;39.33;;;-2.30;99.90;-3.30;99081;;;;614557;228;31581;-79
2021/12/29 07:46:58;;;;;;;73.10;37.10;;;-2.20;99.90;-3.30;99092;;;;594795;237;24060;-80
2021/12/29 07:49:24;;;;;;;77.53;36.17;;;-2.20;99.90;-3.20;99102;;;;590043;236;24020;-75
2021/12/29 07:51:52;;;;;;;58.83;22.30;;;-2.10;99.90;-3.10;99103;;;;596333;237;24048;-77
2021/12/29 07:54:23;;;;;;;30.03;15.20;;;-2.00;99.90;-3.00;99106;;;;595110;236;26162;-75
2021/12/29 07:56:48;;;;;;;49.27;17.77;;;-1.90;99.90;-3.00;99097;;;;590717;237;24104;-76
2021/12/29 07:59:16;;;;;;;55.10;22.63;;;-1.80;99.90;-2.90;99098;;;;594743;237;24023;-75
2021/12/29 08:01:45;;;;;;;53.27;23.80;;;-1.80;99.90;-2.90;99101;;;;589103;237;23993;-74
2021/12/29 08:04:12;;;;;;;38.53;15.90;;;-1.80;99.90;-2.80;99087;;;;593942;241;24085;-74
2021/12/29 08:06:40;;;;;;;55.67;21.87;;;-1.70;99.90;-2.80;99084;;;;590492;238;24006;-74
2021/12/29 08:09:09;;;;;;;73.97;23.60;;;-1.60;99.90;-2.80;99097;;;;581280;243;24128;-75
2021/12/29 08:11:35;;;;;;;48.20;21.27;;;-1.60;99.90;-2.70;99091;;;;591186;242;24072;-75
2021/12/29 08:14:03;;;;;;;52.80;19.33;;;-1.60;99.90;-2.70;99099;;;;574204;246;25131;-75
2021/12/29 08:16:31;;;;;;;63.73;25.13;;;-1.60;99.90;-2.70;99095;;;;574162;244;24051;-72
2021/12/29 08:18:59;;;;;;;60.50;23.80;;;-1.60;99.90;-2.70;99083;;;;582574;241;24042;-74
2021/12/29 08:21:27;;;;;;;65.17;25.00;;;-1.50;99.90;-2.70;99087;;;;571462;246;24178;-74
2021/12/29 08:23:55;;;;;;;44.40;16.27;;;-1.50;99.90;-2.60;99096;;;;577397;246;24045;-76
2021/12/29 08:26:28;;;;;;;94.93;27.57;;;-1.50;99.90;-2.60;99099;;;;592475;240;24140;-73
2021/12/29 08:28:58;;;;;;;57.87;21.07;;;-1.50;99.90;-2.60;99087;;;;596647;240;24109;-75
2021/12/29 08:31:24;;;;;;;61.27;19.63;;;-1.50;99.90;-2.60;99094;;;;588006;240;24016;-75
2021/12/29 08:33:52;;;;;;;72.60;23.93;;;-1.50;99.90;-2.60;99092;;;;587654;240;24114;-75
2021/12/29 08:36:20;;;;;;;68.07;25.30;;;-1.50;99.90;-2.60;99093;;;;587581;240;24056;-78
2021/12/29 08:38:48;;;;;;;77.33;21.23;;;-1.50;99.90;-2.60;99093;;;;584306;239;24033;-75
2021/12/29 08:41:16;;;;;;;61.33;18.60;;;-1.40;99.90;-2.60;99100;;;;573408;246;24075;-75
2021/12/29 08:43:46;;;;;;;49.70;19.57;;;-1.40;99.90;-2.60;99088;;;;572788;246;24067;-75
2021/12/29 08:46:11;;;;;;;80.27;24.43;;;-1.40;99.90;-2.60;99107;;;;573211;246;24064;-75
2021/12/29 08:48:42;;;;;;;48.03;18.60;;;-1.40;99.90;-2.60;99115;;;;574078;246;24081;-74
2021/12/29 08:51:07;;;;;;;45.40;19.20;;;-1.40;99.90;-2.50;99112;;;;573389;246;24110;-75
2021/12/29 08:53:35;;;;;;;67.67;25.80;;;-1.40;99.90;-2.50;99122;;;;573368;244;24131;-74
2021/12/29 08:56:03;;;;;;;52.87;21.40;;;-1.30;99.90;-2.50;99123;;;;583549;244;24089;-74
2021/12/29 08:58:31;;;;;;;77.47;25.43;;;-1.30;99.90;-2.50;99125;;;;574848;246;24088;-77
2021/12/29 09:01:02;;;;;;;72.73;25.30;;;-1.30;99.90;-2.40;99133;;;;571884;246;24090;-72
2021/12/29 09:03:30;;;;;;;76.47;25.83;;;-1.30;99.90;-2.40;99131;;;;571406;247;24144;-76
2021/12/29 09:05:55;;;;;;;45.83;17.93;;;-1.20;99.90;-2.40;99133;;;;574230;242;24124;-74
2021/12/29 09:08:23;;;;;;;72.63;25.60;;;-1.20;99.90;-2.30;99130;;;;592165;238;24110;-73
2021/12/29 09:10:52;;;;;;;68.30;21.87;;;-1.10;99.90;-2.30;99134;;;;583029;242;24102;-73
2021/12/29 09:13:18;;;;;;;71.10;25.00;;;-1.10;99.90;-2.30;99141;;;;582571;242;24093;-73
2021/12/29 09:15:46;;;;;;;69.40;22.37;;;-1.10;99.90;-2.30;99138;;;;582410;242;24075;-74
2021/12/29 09:18:15;;;;;;;80.37;27.03;;;-1.10;99.90;-2.30;99141;;;;582326;242;24055;-72
2021/12/29 09:20:47;;;;;;;88.40;29.30;;;-1.10;99.90;-2.20;99148;;;;582712;242;24061;-77
2021/12/29 09:23:10;;;;;;;74.30;20.93;;;-1.10;99.90;-2.20;99133;;;;587128;242;24108;-74
2021/12/29 09:25:39;;;;;;;54.03;22.17;;;-1.00;99.90;-2.20;99134;;;;582812;242;24063;-72
2021/12/29 09:28:08;;;;;;;61.60;21.70;;;-1.00;99.90;-2.10;99137;;;;583199;242;24080;-74
2021/12/29 09:30:36;;;;;;;88.40;24.17;;;-0.90;99.90;-2.10;99132;;;;582928;242;24137;-73
2021/12/29 09:33:07;;;;;;;59.73;24.13;;;-1.00;99.90;-2.10;99136;;;;591902;242;24138;-72
2021/12/29 09:35:32;;;;;;;55.23;18.93;;;-0.90;99.90;-2.10;99134;;;;582780;242;24104;-73
2021/12/29 09:38:01;;;;;;;62.93;22.70;;;-0.90;99.90;-2.10;99138;;;;582879;242;24037;-73
2021/12/29 09:40:32;;;;;;;47.23;19.43;;;-0.90;99.90;-2.10;99129;;;;589371;242;24016;-75
2021/12/29 09:42:57;;;;;;;31.43;15.23;;;-0.90;99.90;-2.10;99132;;;;589402;242;24080;-72
2021/12/29 09:45:24;;;;;;;63.87;24.07;;;-0.90;99.90;-2.10;99130;;;;591752;242;24084;-77
2021/12/29 09:47:56;;;;;;;66.60;23.10;;;-0.90;99.90;-2.10;99134;;;;582230;242;24083;-74
2021/12/29 09:50:20;;;;;;;44.07;19.70;;;-0.90;99.90;-2.10;99133;;;;581886;242;24072;-79
2021/12/29 09:52:48;;;;;;;74.53;25.43;;;-0.90;99.90;-2.10;99122;;;;582213;242;24076;-79
2021/12/29 09:55:16;;;;;;;60.33;22.80;;;-0.90;99.90;-2.10;99123;;;;582027;242;24052;-77
2021/12/29 09:57:45;;;;;;;58.80;20.20;;;-0.90;99.90;-2.10;99126;;;;591380;239;24114;-74
2021/12/29 10:00:12;;;;;;;66.87;22.70;;;-0.80;99.90;-2.00;99136;;;;582374;242;24078;-76
2021/12/29 10:02:40;;;;;;;50.00;20.27;;;-0.80;99.90;-1.90;99144;;;;579184;242;24044;-77
2021/12/29 10:05:09;;;;;;;55.60;22.33;;;-0.80;99.90;-1.90;99138;;;;591404;240;24102;-75
2021/12/29 10:07:37;;;;;;;43.27;20.27;;;-0.70;99.90;-1.90;99137;;;;583797;241;24147;-81
2021/12/29 10:10:20;;;;;;;61.90;24.37;;;-0.80;99.90;-1.80;99138;;;;583298;242;24082;-78
2021/12/29 10:12:48;;;;;;;74.53;25.63;;;-0.70;99.90;-1.80;99129;;;;582441;242;24084;-79
2021/12/29 10:15:16;;;;;;;129.77;46.50;;;-0.60;99.90;-1.80;99133;;;;577910;242;46082;-81
2021/12/29 10:17:47;;;;;;;100.47;35.87;;;-0.60;99.90;-1.70;99134;;;;582979;242;24082;-76
2021/12/29 10:20:12;;;;;;;80.37;27.73;;;-0.50;99.90;-1.70;99145;;;;582493;242;24088;-77
2021/12/29 10:22:44;;;;;;;55.37;24.33;;;-0.50;99.90;-1.70;99148;;;;582613;242;24091;-74
2021/12/29 10:25:11;;;;;;;61.27;24.00;;;-0.50;99.90;-1.70;99154;;;;582334;242;24121;-77
2021/12/29 10:27:39;;;;;;;64.10;23.37;;;-0.50;99.90;-1.60;99152;;;;582967;242;24063;-78
2021/12/29 10:30:22;;;;;;;46.00;20.43;;;-0.40;99.90;-1.60;99150;;;;591992;242;24089;-79
2021/12/29 10:32:50;;;;;;;47.70;20.97;;;-0.50;99.90;-1.60;99148;;;;582781;242;24059;-78
2021/12/29 10:35:21;;;;;;;65.53;24.17;;;-0.40;99.90;-1.60;99152;;;;582848;242;24067;-74
2021/12/29 10:37:49;;;;;;;88.40;38.88;;;-0.40;99.90;-1.60;99146;;;;566211;247;35390;-74
2021/12/29 10:40:29;;;;;;;68.47;26.03;;;-0.40;99.90;-1.50;99147;;;;559410;251;24135;-74
2021/12/29 10:42:57;;;;;;;56.53;22.10;;;-0.30;99.90;-1.40;99142;;;;569058;252;24114;-74
2021/12/29 10:45:31;;;;;;;45.23;19.30;;;-0.20;99.90;-1.40;99147;;;;579794;247;24099;-73
2021/12/29 10:47:59;;;;;;;48.57;23.70;;;-0.20;99.90;-1.40;99146;;;;559905;252;24117;-78
2021/12/29 10:50:27;;;;;;;42.67;20.47;;;-0.20;99.90;-1.30;99140;;;;570910;247;24102;-80
2021/12/29 10:52:55;;;;;;;40.57;18.17;;;-0.10;99.90;-1.30;99147;;;;559407;252;25269;-81
2021/12/29 10:55:32;;;;;;;43.93;19.07;;;-0.10;99.90;-1.30;99148;;;;559215;251;24175;-78
2021/12/29 10:57:59;;;;;;;34.73;17.30;;;-0.10;99.90;-1.30;99143;;;;570814;247;24092;-83
2021/12/29 11:00:27;;;;;;;61.10;20.17;;;-0.20;99.90;-1.30;99147;;;;560945;251;24166;-75
2021/12/29 11:02:57;;;;;;;40.77;17.60;;;-0.20;99.90;-1.30;99145;;;;559973;251;24193;-80
2021/12/29 11:05:23;;;;;;;47.87;19.63;;;-0.20;99.90;-1.30;99151;;;;570723;247;24141;-77
2021/12/29 11:07:51;;;;;;;42.03;21.17;;;-0.20;99.90;-1.30;99151;;;;579854;244;24100;-75
2021/12/29 11:10:22;;;;;;;53.23;20.63;;;-0.20;99.90;-1.40;99147;;;;579631;246;24059;-76
2021/12/29 11:12:50;;;;;;;35.40;18.40;;;-0.20;99.90;-1.40;99154;;;;568294;248;24089;-78
2021/12/29 11:15:15;;;;;;;50.87;20.10;;;-0.20;99.90;-1.30;99148;;;;567787;248;24105;-77
2021/12/29 11:17:43;;;;;;;40.23;18.70;;;-0.20;99.90;-1.30;99160;;;;567187;248;24105;-75
2021/12/29 11:20:11;;;;;;;49.67;21.33;;;-0.20;99.90;-1.30;99160;;;;578476;247;24089;-78
2021/12/29 11:22:41;;;;;;;47.00;20.60;;;-0.20;99.90;-1.30;99156;;;;569027;248;24085;-78
2021/12/29 11:25:10;;;;;;;45.60;20.70;;;-0.20;99.90;-1.30;99156;;;;569208;248;24101;-81
2021/12/29 11:27:37;;;;;;;38.37;16.33;;;-0.20;99.90;-1.30;99157;;;;569124;248;24082;-77
2021/12/29 11:30:09;;;;;;;44.50;20.80;;;-0.20;99.90;-1.40;99157;;;;569179;248;24093;-74
2021/12/29 11:32:39;;;;;;;34.33;15.03;;;-0.20;99.90;-1.40;99156;;;;569235;248;24085;-74
2021/12/29 11:35:12;;;;;;;45.03;21.30;;;-0.30;99.90;-1.40;99150;;;;572110;248;24106;-74
2021/12/29 11:37:38;;;;;;;36.60;16.57;;;-0.20;99.90;-1.40;99158;;;;566880;248;24070;-75
2021/12/29 11:40:06;;;;;;;28.00;17.10;;;-0.30;99.90;-1.40;99157;;;;579397;247;24197;-75
2021/12/29 11:42:34;;;;;;;44.40;19.17;;;-0.30;99.90;-1.40;99165;;;;561723;251;24120;-76
2021/12/29 11:45:05;;;;;;;41.13;19.80;;;-0.30;99.90;-1.40;99162;;;;571922;247;25134;-75
2021/12/29 11:47:30;;;;;;;47.50;21.30;;;-0.20;99.90;-1.30;99171;;;;573325;246;24087;-78
2021/12/29 11:49:58;;;;;;;33.93;18.67;;;-0.20;99.90;-1.30;99166;;;;575796;245;24063;-75
2021/12/29 11:52:41;;;;;;;46.53;19.67;;;-0.20;99.90;-1.30;99172;;;;575173;245;24118;-77
2021/12/29 11:55:21;;;;;;;43.17;21.03;;;-0.20;99.90;-1.30;99172;;;;578094;245;25107;-73
2021/12/29 11:57:49;;;;;;;37.67;16.70;;;-0.10;99.90;-1.30;99165;;;;574905;245;24094;-75
2021/12/29 12:00:21;;;;;;;40.07;20.77;;;-0.10;99.90;-1.20;99165;;;;574996;245;24120;-76
2021/12/29 12:02:51;;;;;;;50.40;21.30;;;-0.10;99.90;-1.30;99160;;;;575278;245;24070;-74
2021/12/29 12:05:19;;;;;;;41.20;19.87;;;-0.10;99.90;-1.20;99154;;;;574950;245;24050;-73
2021/12/29 12:07:47;;;;;;;25.87;12.57;;;-0.10;99.90;-1.20;99163;;;;583551;242;24121;-75
2021/12/29 12:10:28;;;;;;;87.12;39.85;;;0.00;99.90;-1.10;99161;;;;569852;245;35237;-74
2021/12/29 12:12:55;;;;;;;60.40;27.47;;;0.10;99.90;-1.10;99165;;;;572323;245;24064;-74
2021/12/29 12:15:36;;;;;;;46.43;23.33;;;0.10;99.90;-1.10;99155;;;;575074;245;24073;-77
2021/12/29 12:18:07;;;;;;;40.53;18.80;;;0.10;99.90;-1.10;99160;;;;575069;245;24052;-74
2021/12/29 12:20:43;;;;;;;49.03;20.63;;;0.10;99.90;-1.10;99160;;;;571418;245;24118;-74
2021/12/29 12:23:16;;;;;;;47.90;20.53;;;0.10;99.90;-1.10;99157;;;;571813;245;24060;-75
2021/12/29 12:25:38;;;;;;;32.83;17.50;;;0.00;99.90;-1.10;99158;;;;573854;245;24069;-76
2021/12/29 12:28:06;;;;;;;45.50;20.07;;;0.00;99.90;-1.10;99147;;;;575455;245;24076;-75
2021/12/29 12:30:40;;;;;;;50.47;21.00;;;0.00;99.90;-1.20;99145;;;;575931;245;24082;-77
2021/12/29 12:33:22;;;;;;;41.60;18.53;;;-0.10;99.90;-1.20;99147;;;;573874;245;24055;-75
2021/12/29 12:35:48;;;;;;;43.70;20.10;;;-0.10;99.90;-1.20;99147;;;;576057;245;24066;-77
2021/12/29 12:38:34;;;;;;;43.60;19.67;;;-0.10;99.90;-1.30;99156;;;;575880;245;24111;-75
2021/12/29 12:41:08;;;;;;;29.83;13.47;;;-0.10;99.90;-1.30;99149;;;;584562;245;24074;-75
2021/12/29 12:43:37;;;;;;;48.63;20.07;;;-0.20;99.90;-1.30;99159;;;;575468;245;24050;-76
2021/12/29 12:46:05;;;;;;;27.10;14.90;;;-0.20;99.90;-1.30;99149;;;;582419;245;24073;-76
2021/12/29 12:48:35;;;;;;;40.13;20.50;;;-0.20;99.90;-1.30;99149;;;;584507;245;24106;-73
2021/12/29 12:51:16;;;;;;;35.13;18.47;;;-0.20;99.90;-1.30;99160;;;;575757;245;24085;-76
2021/12/29 12:53:43;;;;;;;46.37;21.33;;;-0.20;99.90;-1.30;99155;;;;571579;245;24075;-74
2021/12/29 12:56:15;;;;;;;32.33;17.67;;;-0.20;99.90;-1.30;99166;;;;575328;245;24057;-74
2021/12/29 12:58:43;;;;;;;28.60;17.53;;;-0.20;99.90;-1.30;99167;;;;583999;245;24094;-74
2021/12/29 13:01:17;;;;;;;28.60;13.80;;;-0.20;99.90;-1.30;99164;;;;584217;245;24056;-74
2021/12/29 13:03:45;;;;;;;39.67;19.87;;;-0.20;99.90;-1.20;99161;;;;571906;245;24110;-74
2021/12/29 13:06:12;;;;;;;71.62;36.15;;;-0.10;99.90;-1.30;99169;;;;570128;245;35174;-77
2021/12/29 13:08:40;;;;;;;49.17;25.80;;;-0.10;99.90;-1.30;99175;;;;574225;245;24097;-80
2021/12/29 13:11:11;;;;;;;41.13;15.80;;;-0.20;99.90;-1.20;99176;;;;584255;245;24083;-80
2021/12/29 13:13:39;;;;;;;45.87;21.03;;;-0.10;99.90;-1.20;99170;;;;568455;249;24082;-80
2021/12/29 13:16:07;;;;;;;44.33;19.97;;;-0.10;99.90;-1.20;99177;;;;557442;253;24124;-79
2021/12/29 13:18:35;;;;;;;43.53;21.33;;;-0.10;99.90;-1.20;99174;;;;557200;253;24133;-81
2021/12/29 13:21:06;;;;;;;48.30;20.27;;;-0.10;99.90;-1.20;99173;;;;567057;249;24094;-74
2021/12/29 13:23:34;;;;;;;53.37;21.27;;;-0.10;99.90;-1.20;99185;;;;565358;253;24150;-75
2021/12/29 13:26:06;;;;;;;37.40;20.70;;;-0.10;99.90;-1.30;99182;;;;567501;249;24142;-76
2021/12/29 13:28:34;;;;;;;44.43;20.30;;;-0.10;99.90;-1.20;99190;;;;566182;253;24110;-74
2021/12/29 13:31:07;;;;;;;30.60;15.13;;;-0.10;99.90;-1.30;99190;;;;567764;249;24109;-74
2021/12/29 13:33:35;;;;;;;27.17;16.43;;;-0.20;99.90;-1.30;99193;;;;567907;249;24105;-76
2021/12/29 13:36:06;;;;;;;26.70;11.77;;;-0.10;99.90;-1.20;99199;;;;567921;249;24079;-77
2021/12/29 13:38:37;;;;;;;41.93;18.87;;;-0.10;99.90;-1.20;99199;;;;567953;249;24092;-76
2021/12/29 13:41:08;;;;;;;40.90;18.30;;;-0.10;99.90;-1.20;99209;;;;575687;248;24093;-77
2021/12/29 13:43:42;;;;;;;48.80;22.13;;;-0.10;99.90;-1.20;99209;;;;568843;248;24093;-76
2021/12/29 13:46:13;;;;;;;45.93;20.73;;;-0.10;99.90;-1.20;99201;;;;568176;248;24121;-75
2021/12/29 13:48:41;;;;;;;35.33;18.43;;;-0.10;99.90;-1.30;99208;;;;571878;246;24201;-77
2021/12/29 13:51:11;;;;;;;34.87;17.13;;;-0.10;99.90;-1.30;99212;;;;571424;247;24127;-79
2021/12/29 13:53:48;;;;;;;47.30;22.53;;;-0.20;99.90;-1.30;99205;;;;561747;251;24191;-80
2021/12/29 13:56:16;;;;;;;44.27;20.70;;;-0.20;99.90;-1.30;99212;;;;562230;251;24126;-76
2021/12/29 13:58:44;;;;;;;39.90;20.23;;;-0.20;99.90;-1.40;99218;;;;559903;251;24122;-77
2021/12/29 14:01:12;;;;;;;42.70;22.33;;;-0.30;99.90;-1.40;99213;;;;570278;250;24111;-74
2021/12/29 14:03:40;;;;;;;35.80;18.17;;;-0.30;99.90;-1.40;99222;;;;571852;247;24101;-74
2021/12/29 14:06:11;;;;;;;38.13;18.03;;;-0.30;99.90;-1.40;99216;;;;580492;247;24072;-81
2021/12/29 14:08:39;;;;;;;36.03;19.33;;;-0.30;99.90;-1.40;99216;;;;561130;251;24115;-82
2021/12/29 14:11:04;;;;;;;43.60;20.77;;;-0.30;99.90;-1.40;99216;;;;571329;247;24096;-76
2021/12/29 14:13:34;;;;;;;36.37;17.93;;;-0.30;99.90;-1.40;99227;;;;567744;249;24206;-77
2021/12/29 14:16:03;;;;;;;34.73;17.63;;;-0.30;99.90;-1.40;99222;;;;560874;252;24187;-78
2021/12/29 14:18:30;;;;;;;36.20;17.30;;;-0.40;99.90;-1.50;99228;;;;558700;251;24141;-75
2021/12/29 14:20:58;;;;;;;45.70;22.07;;;-0.30;99.90;-1.50;99231;;;;569446;251;24142;-76
2021/12/29 14:23:26;;;;;;;36.33;17.37;;;-0.40;99.90;-1.50;99236;;;;565914;249;24143;-77
2021/12/29 14:25:54;;;;;;;27.80;14.53;;;-0.40;99.90;-1.50;99237;;;;567555;249;24191;-78
2021/12/29 14:28:22;;;;;;;42.53;21.37;;;-0.40;99.90;-1.50;99236;;;;567438;249;24081;-78
2021/12/29 14:31:02;;;;;;;40.07;18.83;;;-0.40;99.90;-1.50;99233;;;;570402;249;24146;-81
2021/12/29 14:33:39;;;;;;;43.97;20.87;;;-0.40;99.90;-1.50;99241;;;;567794;251;24144;-76
2021/12/29 14:36:07;;;;;;;30.37;17.47;;;-0.40;99.90;-1.50;99246;;;;576940;247;24105;-75
2021/12/29 14:38:36;;;;;;;33.33;15.43;;;-0.40;99.90;-1.50;99251;;;;574745;247;24081;-74
2021/12/29 14:41:05;;;;;;;42.30;21.40;;;-0.40;99.90;-1.50;99251;;;;561377;251;25258;-74
2021/12/29 14:43:31;;;;;;;45.83;20.07;;;-0.40;99.90;-1.50;99254;;;;571181;247;24109;-78
2021/12/29 14:46:01;;;;;;;34.83;19.17;;;-0.40;99.90;-1.50;99262;;;;569742;251;24129;-78
2021/12/29 14:48:29;;;;;;;30.03;16.07;;;-0.40;99.90;-1.50;99263;;;;571369;247;24084;-77
2021/12/29 14:50:57;;;;;;;38.10;18.20;;;-0.40;99.90;-1.50;99260;;;;580281;247;24160;-75
2021/12/29 14:53:25;;;;;;;47.20;17.90;;;-0.40;99.90;-1.40;99271;;;;560322;252;24029;-73
2021/12/29 14:55:53;;;;;;;92.15;40.85;;;-0.40;99.90;-1.40;99264;;;;567609;246;35381;-74
2021/12/29 14:58:23;;;;;;;73.27;33.47;;;-0.30;99.90;-1.40;99267;;;;571781;246;24186;-73
2021/12/29 15:00:51;;;;;;;64.60;30.80;;;-0.30;99.90;-1.40;99275;;;;580563;244;24090;-73
2021/12/29 15:03:19;;;;;;;86.15;43.25;;;-0.30;99.90;-1.40;99274;;;;573619;245;35340;-73
2021/12/29 15:05:53;;;;;;;58.40;24.57;;;-0.30;99.90;-1.40;99270;;;;580284;247;24132;-72
2021/12/29 15:08:21;;;;;;;48.17;19.70;;;-0.30;99.90;-1.40;99278;;;;569698;247;24108;-73
2021/12/29 15:10:55;;;;;;;37.67;18.93;;;-0.30;99.90;-1.40;99278;;;;580592;247;24151;-73
2021/12/29 15:13:21;;;;;;;31.53;17.67;;;-0.30;99.90;-1.40;99284;;;;571731;247;24107;-74
2021/12/29 15:15:45;;;;;;;25.07;13.77;;;-0.20;99.90;-1.40;99280;;;;571632;247;24103;-75
2021/12/29 15:18:14;;;;;;;36.03;17.03;;;-0.20;99.90;-1.40;99276;;;;571688;247;24129;-75
2021/12/29 15:20:42;;;;;;;45.63;19.57;;;-0.30;99.90;-1.40;99280;;;;569519;249;25118;-73
2021/12/29 15:23:10;;;;;;;31.27;12.57;;;-0.30;99.90;-1.30;99278;;;;557035;253;24107;-74
2021/12/29 15:25:38;;;;;;;32.83;16.40;;;-0.30;99.90;-1.40;99289;;;;557561;253;24103;-74
2021/12/29 15:28:06;;;;;;;35.97;18.27;;;-0.30;99.90;-1.40;99292;;;;567456;249;24100;-74
2021/12/29 15:30:34;;;;;;;37.60;18.73;;;-0.30;99.90;-1.40;99286;;;;566867;249;24113;-74
2021/12/29 15:33:02;;;;;;;29.07;17.23;;;-0.30;99.90;-1.40;99294;;;;561804;253;24141;-73
2021/12/29 15:35:29;;;;;;;21.87;13.13;;;-0.30;99.90;-1.40;99306;;;;566916;249;24076;-75
2021/12/29 15:37:57;;;;;;;32.13;16.27;;;-0.30;99.90;-1.30;99297;;;;575451;249;24095;-75
2021/12/29 15:40:25;;;;;;;32.50;18.37;;;-0.20;99.90;-1.30;99295;;;;564568;249;25127;-74
2021/12/29 15:42:53;;;;;;;38.03;19.47;;;-0.20;99.90;-1.30;99300;;;;566928;249;24088;-74
2021/12/29 15:45:21;;;;;;;20.83;13.23;;;-0.20;99.90;-1.30;99308;;;;571522;248;24135;-73
2021/12/29 15:47:49;;;;;;;68.57;37.03;;;-0.20;99.90;-1.30;99299;;;;568418;246;35281;-73
2021/12/29 15:50:17;;;;;;;58.93;29.53;;;-0.20;99.90;-1.30;99305;;;;570018;246;24041;-75
2021/12/29 15:52:45;;;;;;;74.40;36.58;;;-0.20;99.90;-1.30;99311;;;;577023;246;35119;-75
2021/12/29 15:55:13;;;;;;;54.87;26.87;;;-0.20;99.90;-1.30;99312;;;;573240;246;24064;-73
2021/12/29 15:57:44;;;;;;;42.63;22.53;;;-0.20;99.90;-1.30;99307;;;;573443;246;24122;-73
2021/12/29 16:00:10;;;;;;;37.77;20.50;;;-0.20;99.90;-1.30;99307;;;;581707;246;24081;-73
2021/12/29 16:02:40;;;;;;;31.43;15.17;;;-0.20;99.90;-1.30;99324;;;;573493;246;24050;-72
2021/12/29 16:05:10;;;;;;;40.87;17.03;;;-0.20;99.90;-1.30;99318;;;;574687;246;24137;-75
2021/12/29 16:07:35;;;;;;;30.63;17.13;;;-0.20;99.90;-1.30;99323;;;;574058;246;24060;-73
2021/12/29 16:10:04;;;;;;;22.73;12.43;;;-0.20;99.90;-1.30;99325;;;;574515;246;24100;-77
2021/12/29 16:12:32;;;;;;;30.03;18.27;;;-0.20;99.90;-1.30;99320;;;;574223;246;24106;-73
2021/12/29 16:15:01;;;;;;;38.80;19.00;;;-0.20;99.90;-1.30;99319;;;;574198;246;24068;-73
2021/12/29 16:17:29;;;;;;;37.87;18.50;;;-0.20;99.90;-1.30;99323;;;;583011;246;24122;-74
2021/12/29 16:19:58;;;;;;;29.43;18.27;;;-0.20;99.90;-1.30;99319;;;;574160;246;24045;-74
2021/12/29 16:22:25;;;;;;;42.93;23.90;;;-0.20;99.90;-1.30;99316;;;;574071;246;24063;-82
2021/12/29 16:24:53;;;;;;;40.63;21.00;;;-0.20;99.90;-1.30;99318;;;;573944;246;24050;-77
2021/12/29 16:27:24;;;;;;;44.63;21.57;;;-0.20;99.90;-1.30;99320;;;;573993;246;24063;-80
2021/12/29 16:29:52;;;;;;;51.60;21.07;;;-0.30;99.90;-1.30;99324;;;;573636;246;24092;-81
2021/12/29 16:32:20;;;;;;;49.03;21.70;;;-0.30;99.90;-1.40;99325;;;;582572;246;24062;-80
2021/12/29 16:34:52;;;;;;;28.07;17.53;;;-0.30;99.90;-1.40;99331;;;;582485;246;24052;-79
2021/12/29 16:37:18;;;;;;;39.40;18.57;;;-0.30;99.90;-1.40;99340;;;;573285;246;24118;-82
2021/12/29 16:39:46;;;;;;;35.43;18.90;;;-0.30;99.90;-1.40;99333;;;;573488;246;24070;-74
2021/12/29 16:42:14;;;;;;;40.17;19.50;;;-0.30;99.90;-1.30;99341;;;;573313;246;24072;-82
2021/12/29 16:44:43;;;;;;;23.23;13.87;;;-0.30;99.90;-1.30;99333;;;;573472;246;24104;-80
2021/12/29 16:47:10;;;;;;;26.90;16.03;;;-0.30;99.90;-1.30;99341;;;;573383;246;25095;-82
2021/12/29 16:49:42;;;;;;;36.93;19.30;;;-0.20;99.90;-1.30;99341;;;;573545;246;24059;-81
2021/12/29 16:52:06;;;;;;;71.87;37.65;;;-0.20;99.90;-1.30;99344;;;;568179;246;35267;-74
2021/12/29 16:54:35;;;;;;;69.27;27.80;;;-0.20;99.90;-1.20;99342;;;;582025;246;25097;-73
2021/12/29 16:57:07;;;;;;;40.47;18.57;;;-0.10;99.90;-1.20;99337;;;;573433;246;24179;-82
2021/12/29 16:59:32;;;;;;;33.33;19.10;;;-0.10;99.90;-1.20;99347;;;;572888;246;24114;-73
2021/12/29 17:02:04;;;;;;;24.80;14.77;;;-0.10;99.90;-1.20;99338;;;;573235;246;25118;-73
2021/12/29 17:04:33;;;;;;;28.93;14.33;;;-0.10;99.90;-1.20;99330;;;;572910;246;24076;-73
2021/12/29 17:07:00;;;;;;;38.50;20.23;;;-0.10;99.90;-1.20;99333;;;;573229;246;24089;-73
2021/12/29 17:09:28;;;;;;;28.63;14.97;;;0.00;99.90;-1.20;99342;;;;573251;246;24128;-74
2021/12/29 17:11:55;;;;;;;32.07;16.73;;;-0.10;99.90;-1.20;99350;;;;573252;246;24114;-74
2021/12/29 17:14:23;;;;;;;29.13;17.07;;;-0.10;99.90;-1.20;99346;;;;573415;246;24110;-74
2021/12/29 17:16:51;;;;;;;27.27;14.93;;;-0.10;99.90;-1.20;99345;;;;574804;246;24066;-73
2021/12/29 17:19:19;;;;;;;31.00;16.03;;;-0.10;99.90;-1.20;99345;;;;574491;246;24104;-73
2021/12/29 17:21:49;;;;;;;37.63;20.53;;;-0.10;99.90;-1.20;99346;;;;574322;246;24089;-80
2021/12/29 17:24:14;;;;;;;37.80;17.97;;;-0.10;99.90;-1.20;99345;;;;573989;246;24111;-77
2021/12/29 17:26:42;;;;;;;39.57;21.53;;;0.00;99.90;-1.20;99354;;;;582828;246;24063;-77
2021/12/29 17:29:10;;;;;;;29.37;15.67;;;0.00;99.90;-1.20;99356;;;;570270;248;24078;-78
2021/12/29 17:31:39;;;;;;;32.63;17.90;;;0.00;99.90;-1.10;99360;;;;559356;253;24112;-81
2021/12/29 17:34:09;;;;;;;26.97;13.70;;;0.00;99.90;-1.10;99361;;;;569666;248;24098;-79
2021/12/29 17:36:36;;;;;;;34.50;16.93;;;0.00;99.90;-1.10;99360;;;;559104;253;24139;-76
2021/12/29 17:39:04;;;;;;;37.30;16.97;;;0.00;99.90;-1.10;99358;;;;559544;253;24106;-76
2021/12/29 17:41:31;;;;;;;38.67;19.00;;;0.00;99.90;-1.10;99358;;;;569585;248;24104;-74
2021/12/29 17:44:00;;;;;;;15.43;11.47;;;0.00;99.90;-1.10;99359;;;;569793;248;24122;-77
2021/12/29 17:46:27;;;;;;;38.60;20.70;;;0.00;99.90;-1.10;99361;;;;565488;252;24127;-79
2021/12/29 17:48:55;;;;;;;21.30;14.20;;;0.00;99.90;-1.10;99367;;;;555377;255;24150;-76
2021/12/29 17:51:23;;;;;;;30.70;16.93;;;0.00;99.90;-1.10;99364;;;;551834;255;24145;-77
2021/12/29 17:53:54;;;;;;;48.20;22.43;;;0.00;99.90;-1.10;99358;;;;555194;255;24124;-75
2021/12/29 17:56:23;;;;;;;41.60;21.13;;;0.00;99.90;-1.10;99350;;;;551515;255;24102;-75
2021/12/29 17:58:47;;;;;;;49.00;21.73;;;0.00;99.90;-1.10;99368;;;;561330;255;24153;-75
2021/12/29 18:01:15;;;;;;;40.57;19.43;;;0.00;99.90;-1.10;99368;;;;553541;255;24160;-73
2021/12/29 18:03:43;;;;;;;21.60;11.67;;;0.00;99.90;-1.10;99363;;;;549078;255;24151;-74
2021/12/29 18:06:14;;;;;;;24.33;14.83;;;0.00;99.90;-1.10;99372;;;;551055;255;24128;-74
2021/12/29 18:08:38;;;;;;;26.20;15.10;;;0.00;99.90;-1.10;99367;;;;552302;256;24124;-74
2021/12/29 18:11:06;;;;;;;30.53;15.43;;;0.00;99.90;-1.10;99366;;;;553263;255;24229;-75
2021/12/29 18:13:34;;;;;;;21.97;13.10;;;0.10;99.90;-1.10;99370;;;;563374;251;24119;-73
2021/12/29 18:16:03;;;;;;;35.30;18.67;;;0.10;99.90;-1.10;99368;;;;563313;251;24092;-74
2021/12/29 18:18:31;;;;;;;36.20;19.30;;;0.00;99.90;-1.10;99371;;;;561826;255;25319;-74
2021/12/29 18:20:59;;;;;;;32.63;17.27;;;0.00;99.90;-1.10;99385;;;;563347;251;24099;-74
2021/12/29 18:23:27;;;;;;;24.27;13.50;;;0.00;99.90;-1.10;99384;;;;571735;251;24194;-74
2021/12/29 18:25:55;;;;;;;24.20;14.57;;;0.10;99.90;-1.10;99387;;;;563379;251;24123;-73
2021/12/29 18:28:23;;;;;;;22.13;11.27;;;0.10;99.90;-1.10;99392;;;;564672;250;24105;-73
2021/12/29 18:30:50;;;;;;;30.63;16.20;;;0.10;99.90;-1.10;99391;;;;564716;250;24131;-74
2021/12/29 18:33:18;;;;;;;28.27;15.77;;;0.10;99.90;-1.10;99378;;;;564400;250;24110;-74
2021/12/29 18:35:50;;;;;;;31.20;14.67;;;0.10;99.90;-1.10;99390;;;;564428;250;24117;-74
2021/12/29 18:38:14;;;;;;;28.37;17.40;;;0.10;99.90;-1.00;99385;;;;553999;255;24120;-75
2021/12/29 18:40:42;;;;;;;24.40;13.97;;;0.10;99.90;-1.00;99388;;;;561456;250;24096;-73
2021/12/29 18:43:13;;;;;;;27.87;13.90;;;0.10;99.90;-1.00;99386;;;;564287;250;24116;-74
2021/12/29 18:45:38;;;;;;;25.87;14.90;;;0.10;99.90;-1.00;99395;;;;551616;255;24115;-75
2021/12/29 18:48:06;;;;;;;23.47;15.67;;;0.10;99.90;-1.00;99386;;;;551324;256;24154;-74
2021/12/29 18:50:38;;;;;;;21.17;12.40;;;0.10;99.90;-1.00;99376;;;;551206;256;24156;-74
2021/12/29 18:53:03;;;;;;;39.97;18.43;;;0.10;99.90;-1.00;99377;;;;558409;253;24200;-76